sensor_id;sensor_type;location;lat;lon;timestamp;P1;durP1;ratioP1;P2;durP2;ratioP2
10313;SDS011;5202;49.138;10.090;2023-02-14T00:01:55;30.17;;;16.77;;
10313;SDS011;5202;49.138;10.090;2023-02-14T00:04:23;27.87;;;16.80;;
10313;SDS011;5202;49.138;10.090;2023-02-14T00:06:52;32.37;;;18.20;;
10313;SDS011;5202;49.138;10.090;2023-02-14T00:09:21;28.73;;;16.20;;
10313;SDS011;5202;49.138;10.090;2023-02-14T00:11:49;27.00;;;16.30;;
10313;SDS011;5202;49.138;10.090;2023-02-14T00:14:19;26.63;;;15.00;;
10313;SDS011;5202;49.138;10.090;2023-02-14T00:17:06;29.77;;;16.60;;
10313;SDS011;5202;49.138;10.090;2023-02-14T00:19:34;27.97;;;16.23;;
10313;SDS011;5202;49.138;10.090;2023-02-14T00:22:02;27.23;;;16.60;;
10313;SDS011;5202;49.138;10.090;2023-02-14T00:24:31;28.90;;;16.47;;
10313;SDS011;5202;49.138;10.090;2023-02-14T00:27:00;30.40;;;16.90;;
10313;SDS011;5202;49.138;10.090;2023-02-14T00:29:29;26.43;;;15.87;;
10313;SDS011;5202;49.138;10.090;2023-02-14T00:32:00;29.70;;;16.70;;
10313;SDS011;5202;49.138;10.090;2023-02-14T00:34:30;30.73;;;17.70;;
10313;SDS011;5202;49.138;10.090;2023-02-14T00:37:01;28.70;;;16.70;;
10313;SDS011;5202;49.138;10.090;2023-02-14T00:39:30;30.23;;;18.10;;
10313;SDS011;5202;49.138;10.090;2023-02-14T00:41:59;29.00;;;17.47;;
10313;SDS011;5202;49.138;10.090;2023-02-14T00:44:27;28.30;;;16.17;;
10313;SDS011;5202;49.138;10.090;2023-02-14T00:46:55;25.60;;;15.83;;
10313;SDS011;5202;49.138;10.090;2023-02-14T00:49:24;26.27;;;15.37;;
10313;SDS011;5202;49.138;10.090;2023-02-14T00:51:53;28.07;;;15.30;;
10313;SDS011;5202;49.138;10.090;2023-02-14T00:54:21;24.17;;;15.70;;
10313;SDS011;5202;49.138;10.090;2023-02-14T00:56:49;25.93;;;15.33;;
10313;SDS011;5202;49.138;10.090;2023-02-14T00:59:18;23.97;;;14.53;;
10313;SDS011;5202;49.138;10.090;2023-02-14T01:01:46;25.00;;;15.20;;
10313;SDS011;5202;49.138;10.090;2023-02-14T01:04:14;26.37;;;14.70;;
10313;SDS011;5202;49.138;10.090;2023-02-14T01:06:44;24.00;;;14.77;;
10313;SDS011;5202;49.138;10.090;2023-02-14T01:09:13;25.83;;;15.23;;
10313;SDS011;5202;49.138;10.090;2023-02-14T01:11:42;24.27;;;15.30;;
10313;SDS011;5202;49.138;10.090;2023-02-14T01:14:10;24.20;;;14.83;;
10313;SDS011;5202;49.138;10.090;2023-02-14T01:16:38;24.17;;;13.50;;
10313;SDS011;5202;49.138;10.090;2023-02-14T01:19:06;23.17;;;13.80;;
10313;SDS011;5202;49.138;10.090;2023-02-14T01:21:35;22.17;;;13.83;;
10313;SDS011;5202;49.138;10.090;2023-02-14T01:24:04;25.10;;;13.60;;
10313;SDS011;5202;49.138;10.090;2023-02-14T01:26:35;21.43;;;13.60;;
10313;SDS011;5202;49.138;10.090;2023-02-14T01:29:03;22.40;;;13.60;;
10313;SDS011;5202;49.138;10.090;2023-02-14T01:31:33;22.50;;;13.77;;
10313;SDS011;5202;49.138;10.090;2023-02-14T01:34:02;23.23;;;13.70;;
10313;SDS011;5202;49.138;10.090;2023-02-14T01:36:31;23.83;;;13.20;;
10313;SDS011;5202;49.138;10.090;2023-02-14T01:39:03;23.27;;;14.33;;
10313;SDS011;5202;49.138;10.090;2023-02-14T01:41:35;25.63;;;14.47;;
10313;SDS011;5202;49.138;10.090;2023-02-14T01:44:49;22.83;;;13.93;;
10313;SDS011;5202;49.138;10.090;2023-02-14T01:47:21;26.80;;;14.07;;
10313;SDS011;5202;49.138;10.090;2023-02-14T01:49:51;23.33;;;14.03;;
10313;SDS011;5202;49.138;10.090;2023-02-14T01:52:24;22.17;;;14.27;;
10313;SDS011;5202;49.138;10.090;2023-02-14T01:54:56;24.97;;;14.27;;
10313;SDS011;5202;49.138;10.090;2023-02-14T01:57:34;23.33;;;14.10;;
10313;SDS011;5202;49.138;10.090;2023-02-14T02:00:07;22.07;;;13.80;;
10313;SDS011;5202;49.138;10.090;2023-02-14T02:02:58;23.07;;;13.90;;
10313;SDS011;5202;49.138;10.090;2023-02-14T02:05:52;24.73;;;14.13;;
10313;SDS011;5202;49.138;10.090;2023-02-14T02:08:24;25.13;;;13.87;;
10313;SDS011;5202;49.138;10.090;2023-02-14T02:10:53;25.97;;;14.57;;
10313;SDS011;5202;49.138;10.090;2023-02-14T02:13:22;24.13;;;14.77;;
10313;SDS011;5202;49.138;10.090;2023-02-14T02:15:57;27.57;;;15.47;;
10313;SDS011;5202;49.138;10.090;2023-02-14T02:18:45;25.30;;;14.40;;
10313;SDS011;5202;49.138;10.090;2023-02-14T02:21:33;24.63;;;14.23;;
10313;SDS011;5202;49.138;10.090;2023-02-14T02:24:32;23.00;;;14.50;;
10313;SDS011;5202;49.138;10.090;2023-02-14T02:27:25;24.63;;;14.83;;
10313;SDS011;5202;49.138;10.090;2023-02-14T02:34:00;22.40;;;13.77;;
10313;SDS011;5202;49.138;10.090;2023-02-14T02:37:03;22.60;;;13.10;;
10313;SDS011;5202;49.138;10.090;2023-02-14T02:40:02;22.73;;;13.57;;
10313;SDS011;5202;49.138;10.090;2023-02-14T02:42:45;23.40;;;14.20;;
10313;SDS011;5202;49.138;10.090;2023-02-14T02:45:26;24.10;;;14.60;;
10313;SDS011;5202;49.138;10.090;2023-02-14T02:48:25;21.63;;;13.67;;
10313;SDS011;5202;49.138;10.090;2023-02-14T02:51:06;22.03;;;13.70;;
10313;SDS011;5202;49.138;10.090;2023-02-14T02:54:01;22.30;;;13.53;;
10313;SDS011;5202;49.138;10.090;2023-02-14T02:56:36;18.57;;;12.03;;
10313;SDS011;5202;49.138;10.090;2023-02-14T02:59:16;20.07;;;12.30;;
10313;SDS011;5202;49.138;10.090;2023-02-14T03:01:53;19.97;;;11.90;;
10313;SDS011;5202;49.138;10.090;2023-02-14T03:04:28;19.10;;;12.13;;
10313;SDS011;5202;49.138;10.090;2023-02-14T03:07:18;19.27;;;12.10;;
10313;SDS011;5202;49.138;10.090;2023-02-14T03:10:10;19.57;;;11.60;;
10313;SDS011;5202;49.138;10.090;2023-02-14T03:12:49;22.23;;;13.90;;
10313;SDS011;5202;49.138;10.090;2023-02-14T03:15:52;18.50;;;11.70;;
10313;SDS011;5202;49.138;10.090;2023-02-14T03:18:50;20.17;;;12.20;;
10313;SDS011;5202;49.138;10.090;2023-02-14T03:21:53;21.87;;;11.93;;
10313;SDS011;5202;49.138;10.090;2023-02-14T03:24:26;22.23;;;12.60;;
10313;SDS011;5202;49.138;10.090;2023-02-14T03:27:05;20.43;;;11.90;;
10313;SDS011;5202;49.138;10.090;2023-02-14T03:29:45;21.77;;;13.43;;
10313;SDS011;5202;49.138;10.090;2023-02-14T03:32:26;22.20;;;13.03;;
10313;SDS011;5202;49.138;10.090;2023-02-14T03:35:04;21.17;;;12.97;;
10313;SDS011;5202;49.138;10.090;2023-02-14T03:37:40;22.50;;;13.03;;
10313;SDS011;5202;49.138;10.090;2023-02-14T03:40:15;19.63;;;12.77;;
10313;SDS011;5202;49.138;10.090;2023-02-14T03:42:49;21.87;;;12.40;;
10313;SDS011;5202;49.138;10.090;2023-02-14T03:45:23;20.73;;;12.63;;
10313;SDS011;5202;49.138;10.090;2023-02-14T03:47:56;21.93;;;13.03;;
10313;SDS011;5202;49.138;10.090;2023-02-14T03:50:28;22.43;;;13.60;;
10313;SDS011;5202;49.138;10.090;2023-02-14T03:52:59;21.77;;;13.20;;
10313;SDS011;5202;49.138;10.090;2023-02-14T03:55:30;22.10;;;12.93;;
10313;SDS011;5202;49.138;10.090;2023-02-14T03:58:05;23.60;;;13.90;;
10313;SDS011;5202;49.138;10.090;2023-02-14T04:00:38;24.50;;;13.40;;
10313;SDS011;5202;49.138;10.090;2023-02-14T04:03:09;24.70;;;13.80;;
10313;SDS011;5202;49.138;10.090;2023-02-14T04:05:39;22.23;;;12.90;;
10313;SDS011;5202;49.138;10.090;2023-02-14T04:08:21;22.27;;;14.30;;
10313;SDS011;5202;49.138;10.090;2023-02-14T04:10:52;23.87;;;13.77;;
10313;SDS011;5202;49.138;10.090;2023-02-14T04:13:25;22.57;;;13.27;;
10313;SDS011;5202;49.138;10.090;2023-02-14T04:15:54;21.43;;;13.30;;
10313;SDS011;5202;49.138;10.090;2023-02-14T04:18:22;21.77;;;12.93;;
10313;SDS011;5202;49.138;10.090;2023-02-14T04:21:08;21.93;;;12.93;;
10313;SDS011;5202;49.138;10.090;2023-02-14T04:23:37;22.63;;;12.70;;
10313;SDS011;5202;49.138;10.090;2023-02-14T04:26:05;20.60;;;12.97;;
10313;SDS011;5202;49.138;10.090;2023-02-14T04:28:35;20.47;;;13.03;;
10313;SDS011;5202;49.138;10.090;2023-02-14T04:31:06;21.77;;;13.07;;
10313;SDS011;5202;49.138;10.090;2023-02-14T04:33:35;21.20;;;13.00;;
10313;SDS011;5202;49.138;10.090;2023-02-14T04:36:04;20.10;;;11.77;;
10313;SDS011;5202;49.138;10.090;2023-02-14T04:38:33;20.23;;;12.37;;
10313;SDS011;5202;49.138;10.090;2023-02-14T04:41:01;21.20;;;12.60;;
10313;SDS011;5202;49.138;10.090;2023-02-14T04:43:30;19.70;;;12.50;;
10313;SDS011;5202;49.138;10.090;2023-02-14T04:45:59;20.90;;;12.20;;
10313;SDS011;5202;49.138;10.090;2023-02-14T04:48:28;21.33;;;12.10;;
10313;SDS011;5202;49.138;10.090;2023-02-14T04:50:56;19.97;;;12.67;;
10313;SDS011;5202;49.138;10.090;2023-02-14T04:53:25;19.67;;;12.63;;
10313;SDS011;5202;49.138;10.090;2023-02-14T04:55:53;19.60;;;12.23;;
10313;SDS011;5202;49.138;10.090;2023-02-14T04:58:21;18.60;;;11.53;;
10313;SDS011;5202;49.138;10.090;2023-02-14T05:00:50;18.80;;;11.20;;
10313;SDS011;5202;49.138;10.090;2023-02-14T05:03:23;19.80;;;12.27;;
10313;SDS011;5202;49.138;10.090;2023-02-14T05:05:51;19.63;;;11.27;;
10313;SDS011;5202;49.138;10.090;2023-02-14T05:08:19;19.33;;;11.57;;
10313;SDS011;5202;49.138;10.090;2023-02-14T05:10:48;20.13;;;11.90;;
10313;SDS011;5202;49.138;10.090;2023-02-14T05:13:16;18.20;;;10.97;;
10313;SDS011;5202;49.138;10.090;2023-02-14T05:15:44;17.70;;;11.17;;
10313;SDS011;5202;49.138;10.090;2023-02-14T05:18:13;18.37;;;12.07;;
10313;SDS011;5202;49.138;10.090;2023-02-14T05:20:42;19.23;;;11.30;;
10313;SDS011;5202;49.138;10.090;2023-02-14T05:23:11;18.37;;;11.80;;
10313;SDS011;5202;49.138;10.090;2023-02-14T05:25:39;18.60;;;11.20;;
10313;SDS011;5202;49.138;10.090;2023-02-14T05:28:08;17.93;;;11.67;;
10313;SDS011;5202;49.138;10.090;2023-02-14T05:30:37;18.20;;;11.53;;
10313;SDS011;5202;49.138;10.090;2023-02-14T05:33:05;18.83;;;12.17;;
10313;SDS011;5202;49.138;10.090;2023-02-14T05:35:34;19.53;;;12.00;;
10313;SDS011;5202;49.138;10.090;2023-02-14T05:38:04;18.10;;;11.43;;
10313;SDS011;5202;49.138;10.090;2023-02-14T05:40:32;20.70;;;12.13;;
10313;SDS011;5202;49.138;10.090;2023-02-14T05:43:00;18.40;;;11.57;;
10313;SDS011;5202;49.138;10.090;2023-02-14T05:45:28;19.03;;;11.20;;
10313;SDS011;5202;49.138;10.090;2023-02-14T05:47:57;18.10;;;11.53;;
10313;SDS011;5202;49.138;10.090;2023-02-14T05:50:25;19.50;;;12.10;;
10313;SDS011;5202;49.138;10.090;2023-02-14T05:52:53;17.67;;;10.97;;
10313;SDS011;5202;49.138;10.090;2023-02-14T05:55:23;18.67;;;11.17;;
10313;SDS011;5202;49.138;10.090;2023-02-14T05:57:52;18.87;;;11.40;;
10313;SDS011;5202;49.138;10.090;2023-02-14T06:00:20;17.93;;;11.20;;
10313;SDS011;5202;49.138;10.090;2023-02-14T06:02:50;20.20;;;11.87;;
10313;SDS011;5202;49.138;10.090;2023-02-14T06:05:18;19.80;;;11.97;;
10313;SDS011;5202;49.138;10.090;2023-02-14T06:07:47;18.20;;;10.93;;
10313;SDS011;5202;49.138;10.090;2023-02-14T06:10:17;17.77;;;11.23;;
10313;SDS011;5202;49.138;10.090;2023-02-14T06:12:49;19.93;;;12.60;;
10313;SDS011;5202;49.138;10.090;2023-02-14T06:15:19;18.87;;;11.97;;
10313;SDS011;5202;49.138;10.090;2023-02-14T06:17:51;18.43;;;11.27;;
10313;SDS011;5202;49.138;10.090;2023-02-14T06:20:21;18.53;;;11.67;;
10313;SDS011;5202;49.138;10.090;2023-02-14T06:22:50;17.33;;;11.40;;
10313;SDS011;5202;49.138;10.090;2023-02-14T06:25:19;18.83;;;11.70;;
10313;SDS011;5202;49.138;10.090;2023-02-14T06:27:48;17.67;;;11.03;;
10313;SDS011;5202;49.138;10.090;2023-02-14T06:30:17;19.77;;;11.13;;
10313;SDS011;5202;49.138;10.090;2023-02-14T06:32:45;17.43;;;11.10;;
10313;SDS011;5202;49.138;10.090;2023-02-14T06:35:13;16.50;;;10.60;;
10313;SDS011;5202;49.138;10.090;2023-02-14T06:37:43;18.17;;;10.97;;
10313;SDS011;5202;49.138;10.090;2023-02-14T06:40:11;19.87;;;11.43;;
10313;SDS011;5202;49.138;10.090;2023-02-14T06:42:40;18.10;;;11.87;;
10313;SDS011;5202;49.138;10.090;2023-02-14T06:45:11;16.43;;;10.47;;
10313;SDS011;5202;49.138;10.090;2023-02-14T06:47:39;18.33;;;11.20;;
10313;SDS011;5202;49.138;10.090;2023-02-14T06:50:07;17.90;;;11.80;;
10313;SDS011;5202;49.138;10.090;2023-02-14T06:52:38;19.90;;;11.10;;
10313;SDS011;5202;49.138;10.090;2023-02-14T06:55:07;18.97;;;11.90;;
10313;SDS011;5202;49.138;10.090;2023-02-14T06:57:37;16.20;;;11.27;;
10313;SDS011;5202;49.138;10.090;2023-02-14T07:00:06;18.47;;;11.43;;
10313;SDS011;5202;49.138;10.090;2023-02-14T07:02:37;21.33;;;11.97;;
10313;SDS011;5202;49.138;10.090;2023-02-14T07:05:05;18.60;;;11.40;;
10313;SDS011;5202;49.138;10.090;2023-02-14T07:08:02;19.33;;;10.90;;
10313;SDS011;5202;49.138;10.090;2023-02-14T07:10:32;17.80;;;10.87;;
10313;SDS011;5202;49.138;10.090;2023-02-14T07:13:01;19.90;;;11.67;;
10313;SDS011;5202;49.138;10.090;2023-02-14T07:15:30;19.00;;;12.10;;
10313;SDS011;5202;49.138;10.090;2023-02-14T07:18:00;16.47;;;11.00;;
10313;SDS011;5202;49.138;10.090;2023-02-14T07:20:28;19.37;;;11.50;;
10313;SDS011;5202;49.138;10.090;2023-02-14T07:22:57;19.20;;;11.63;;
10313;SDS011;5202;49.138;10.090;2023-02-14T07:25:25;17.47;;;11.07;;
10313;SDS011;5202;49.138;10.090;2023-02-14T07:27:54;17.80;;;11.60;;
10313;SDS011;5202;49.138;10.090;2023-02-14T07:30:22;17.97;;;11.13;;
10313;SDS011;5202;49.138;10.090;2023-02-14T07:32:51;16.63;;;10.47;;
10313;SDS011;5202;49.138;10.090;2023-02-14T07:35:20;17.53;;;11.40;;
10313;SDS011;5202;49.138;10.090;2023-02-14T07:37:49;18.03;;;10.93;;
10313;SDS011;5202;49.138;10.090;2023-02-14T07:40:18;18.67;;;11.97;;
10313;SDS011;5202;49.138;10.090;2023-02-14T07:42:51;17.97;;;11.07;;
10313;SDS011;5202;49.138;10.090;2023-02-14T07:45:20;16.77;;;10.67;;
10313;SDS011;5202;49.138;10.090;2023-02-14T07:47:49;17.53;;;11.17;;
10313;SDS011;5202;49.138;10.090;2023-02-14T07:50:21;16.53;;;10.40;;
10313;SDS011;5202;49.138;10.090;2023-02-14T07:52:50;20.67;;;12.23;;
10313;SDS011;5202;49.138;10.090;2023-02-14T07:55:18;18.50;;;10.80;;
10313;SDS011;5202;49.138;10.090;2023-02-14T07:57:48;16.93;;;10.97;;
10313;SDS011;5202;49.138;10.090;2023-02-14T08:00:16;17.03;;;10.63;;
10313;SDS011;5202;49.138;10.090;2023-02-14T08:02:46;17.47;;;11.40;;
10313;SDS011;5202;49.138;10.090;2023-02-14T08:05:16;17.50;;;11.07;;
10313;SDS011;5202;49.138;10.090;2023-02-14T08:07:46;17.13;;;11.43;;
10313;SDS011;5202;49.138;10.090;2023-02-14T08:10:15;15.87;;;10.93;;
10313;SDS011;5202;49.138;10.090;2023-02-14T08:12:44;18.23;;;10.87;;
10313;SDS011;5202;49.138;10.090;2023-02-14T08:15:29;17.43;;;10.70;;
10313;SDS011;5202;49.138;10.090;2023-02-14T08:18:13;16.07;;;10.33;;
10313;SDS011;5202;49.138;10.090;2023-02-14T08:20:43;17.77;;;11.03;;
10313;SDS011;5202;49.138;10.090;2023-02-14T08:23:13;19.03;;;11.40;;
10313;SDS011;5202;49.138;10.090;2023-02-14T08:25:41;17.93;;;10.83;;
10313;SDS011;5202;49.138;10.090;2023-02-14T08:28:10;18.10;;;10.93;;
10313;SDS011;5202;49.138;10.090;2023-02-14T08:30:39;17.80;;;11.63;;
10313;SDS011;5202;49.138;10.090;2023-02-14T08:33:08;16.40;;;10.30;;
10313;SDS011;5202;49.138;10.090;2023-02-14T08:35:37;18.00;;;11.27;;
10313;SDS011;5202;49.138;10.090;2023-02-14T08:38:05;19.63;;;11.47;;
10313;SDS011;5202;49.138;10.090;2023-02-14T08:40:35;18.40;;;10.87;;
10313;SDS011;5202;49.138;10.090;2023-02-14T08:43:03;18.40;;;11.30;;
10313;SDS011;5202;49.138;10.090;2023-02-14T08:45:32;16.37;;;11.10;;
10313;SDS011;5202;49.138;10.090;2023-02-14T08:48:03;18.43;;;11.40;;
10313;SDS011;5202;49.138;10.090;2023-02-14T08:50:34;16.27;;;10.57;;
10313;SDS011;5202;49.138;10.090;2023-02-14T08:53:05;16.07;;;10.90;;
10313;SDS011;5202;49.138;10.090;2023-02-14T08:55:35;16.77;;;10.43;;
10313;SDS011;5202;49.138;10.090;2023-02-14T08:58:04;17.90;;;11.27;;
10313;SDS011;5202;49.138;10.090;2023-02-14T09:00:33;17.17;;;11.10;;
10313;SDS011;5202;49.138;10.090;2023-02-14T09:03:08;17.63;;;11.33;;
10313;SDS011;5202;49.138;10.090;2023-02-14T09:05:37;17.20;;;10.67;;
10313;SDS011;5202;49.138;10.090;2023-02-14T09:08:06;17.60;;;11.13;;
10313;SDS011;5202;49.138;10.090;2023-02-14T09:10:36;17.00;;;11.00;;
10313;SDS011;5202;49.138;10.090;2023-02-14T09:13:04;17.97;;;11.53;;
10313;SDS011;5202;49.138;10.090;2023-02-14T09:15:33;17.50;;;11.40;;
10313;SDS011;5202;49.138;10.090;2023-02-14T09:18:01;16.30;;;10.60;;
10313;SDS011;5202;49.138;10.090;2023-02-14T09:20:29;17.73;;;10.60;;
10313;SDS011;5202;49.138;10.090;2023-02-14T09:22:58;16.50;;;10.57;;
10313;SDS011;5202;49.138;10.090;2023-02-14T09:25:26;15.50;;;10.93;;
10313;SDS011;5202;49.138;10.090;2023-02-14T09:27:56;17.37;;;10.97;;
10313;SDS011;5202;49.138;10.090;2023-02-14T09:30:24;15.00;;;9.97;;
10313;SDS011;5202;49.138;10.090;2023-02-14T09:32:52;15.57;;;10.73;;
10313;SDS011;5202;49.138;10.090;2023-02-14T09:35:21;19.03;;;11.33;;
10313;SDS011;5202;49.138;10.090;2023-02-14T09:37:49;18.93;;;11.70;;
10313;SDS011;5202;49.138;10.090;2023-02-14T09:40:17;18.67;;;11.53;;
10313;SDS011;5202;49.138;10.090;2023-02-14T09:43:00;15.37;;;10.70;;
10313;SDS011;5202;49.138;10.090;2023-02-14T09:45:36;17.93;;;10.77;;
10313;SDS011;5202;49.138;10.090;2023-02-14T09:48:06;15.67;;;10.30;;
10313;SDS011;5202;49.138;10.090;2023-02-14T09:50:43;15.60;;;10.40;;
10313;SDS011;5202;49.138;10.090;2023-02-14T09:53:17;16.73;;;10.47;;
10313;SDS011;5202;49.138;10.090;2023-02-14T09:55:54;17.67;;;11.27;;
10313;SDS011;5202;49.138;10.090;2023-02-14T09:58:33;16.07;;;10.60;;
10313;SDS011;5202;49.138;10.090;2023-02-14T10:01:11;15.33;;;10.27;;
10313;SDS011;5202;49.138;10.090;2023-02-14T10:03:54;16.23;;;10.47;;
10313;SDS011;5202;49.138;10.090;2023-02-14T10:06:44;16.53;;;10.10;;
10313;SDS011;5202;49.138;10.090;2023-02-14T10:09:21;18.60;;;10.50;;
10313;SDS011;5202;49.138;10.090;2023-02-14T10:12:19;15.03;;;10.70;;
10313;SDS011;5202;49.138;10.090;2023-02-14T10:14:51;14.23;;;9.87;;
10313;SDS011;5202;49.138;10.090;2023-02-14T10:17:22;16.93;;;10.27;;
10313;SDS011;5202;49.138;10.090;2023-02-14T10:20:03;17.10;;;10.27;;
10313;SDS011;5202;49.138;10.090;2023-02-14T10:22:43;14.00;;;9.73;;
10313;SDS011;5202;49.138;10.090;2023-02-14T10:25:19;14.90;;;10.30;;
10313;SDS011;5202;49.138;10.090;2023-02-14T10:27:52;16.53;;;11.10;;
10313;SDS011;5202;49.138;10.090;2023-02-14T10:30:26;15.70;;;10.07;;
10313;SDS011;5202;49.138;10.090;2023-02-14T10:33:05;17.03;;;10.60;;
10313;SDS011;5202;49.138;10.090;2023-02-14T10:35:41;15.47;;;10.30;;
10313;SDS011;5202;49.138;10.090;2023-02-14T10:38:18;16.13;;;10.30;;
10313;SDS011;5202;49.138;10.090;2023-02-14T10:41:04;15.27;;;10.23;;
10313;SDS011;5202;49.138;10.090;2023-02-14T10:44:01;17.13;;;9.93;;
10313;SDS011;5202;49.138;10.090;2023-02-14T10:46:48;15.67;;;9.33;;
10313;SDS011;5202;49.138;10.090;2023-02-14T10:49:28;15.23;;;9.77;;
10313;SDS011;5202;49.138;10.090;2023-02-14T10:52:06;16.10;;;10.40;;
10313;SDS011;5202;49.138;10.090;2023-02-14T10:54:43;16.13;;;9.77;;
10313;SDS011;5202;49.138;10.090;2023-02-14T10:57:19;14.97;;;10.20;;
10313;SDS011;5202;49.138;10.090;2023-02-14T10:59:54;16.70;;;10.57;;
10313;SDS011;5202;49.138;10.090;2023-02-14T11:02:30;14.43;;;10.20;;
10313;SDS011;5202;49.138;10.090;2023-02-14T11:05:05;15.57;;;9.87;;
10313;SDS011;5202;49.138;10.090;2023-02-14T11:07:47;13.70;;;9.10;;
10313;SDS011;5202;49.138;10.090;2023-02-14T11:10:16;13.63;;;9.70;;
10313;SDS011;5202;49.138;10.090;2023-02-14T11:12:50;15.27;;;9.73;;
10313;SDS011;5202;49.138;10.090;2023-02-14T11:15:21;15.97;;;11.10;;
10313;SDS011;5202;49.138;10.090;2023-02-14T11:20:57;17.43;;;11.57;;
10313;SDS011;5202;49.138;10.090;2023-02-14T11:23:31;17.27;;;10.70;;
10313;SDS011;5202;49.138;10.090;2023-02-14T11:26:02;15.70;;;10.00;;
10313;SDS011;5202;49.138;10.090;2023-02-14T11:28:36;15.07;;;9.90;;
10313;SDS011;5202;49.138;10.090;2023-02-14T11:31:14;14.47;;;10.30;;
10313;SDS011;5202;49.138;10.090;2023-02-14T11:34:01;14.57;;;9.87;;
10313;SDS011;5202;49.138;10.090;2023-02-14T11:36:31;15.17;;;10.63;;
10313;SDS011;5202;49.138;10.090;2023-02-14T11:39:15;18.20;;;10.90;;
10313;SDS011;5202;49.138;10.090;2023-02-14T11:41:54;17.57;;;11.00;;
10313;SDS011;5202;49.138;10.090;2023-02-14T11:44:25;14.30;;;10.13;;
10313;SDS011;5202;49.138;10.090;2023-02-14T11:46:56;16.30;;;10.40;;
10313;SDS011;5202;49.138;10.090;2023-02-14T11:49:54;16.33;;;10.90;;
10313;SDS011;5202;49.138;10.090;2023-02-14T11:52:26;14.50;;;10.27;;
10313;SDS011;5202;49.138;10.090;2023-02-14T11:54:56;17.93;;;10.80;;
10313;SDS011;5202;49.138;10.090;2023-02-14T11:57:26;16.37;;;10.80;;
10313;SDS011;5202;49.138;10.090;2023-02-14T11:59:58;15.10;;;10.53;;
10313;SDS011;5202;49.138;10.090;2023-02-14T12:02:38;17.63;;;10.17;;
10313;SDS011;5202;49.138;10.090;2023-02-14T12:05:16;13.23;;;10.03;;
10313;SDS011;5202;49.138;10.090;2023-02-14T12:07:48;14.77;;;9.83;;
10313;SDS011;5202;49.138;10.090;2023-02-14T12:10:21;15.10;;;9.97;;
10313;SDS011;5202;49.138;10.090;2023-02-14T12:12:54;14.20;;;9.93;;
10313;SDS011;5202;49.138;10.090;2023-02-14T12:15:29;14.77;;;9.30;;
10313;SDS011;5202;49.138;10.090;2023-02-14T12:21:32;14.87;;;9.97;;
10313;SDS011;5202;49.138;10.090;2023-02-14T12:24:14;13.27;;;9.53;;
10313;SDS011;5202;49.138;10.090;2023-02-14T12:26:54;14.07;;;9.73;;
10313;SDS011;5202;49.138;10.090;2023-02-14T12:29:32;15.40;;;10.20;;
10313;SDS011;5202;49.138;10.090;2023-02-14T12:32:15;17.07;;;10.83;;
10313;SDS011;5202;49.138;10.090;2023-02-14T12:34:49;12.57;;;8.97;;
10313;SDS011;5202;49.138;10.090;2023-02-14T12:37:26;14.70;;;10.27;;
10313;SDS011;5202;49.138;10.090;2023-02-14T12:40:08;13.50;;;9.60;;
10313;SDS011;5202;49.138;10.090;2023-02-14T12:42:59;12.77;;;9.37;;
10313;SDS011;5202;49.138;10.090;2023-02-14T12:46:10;18.43;;;9.80;;
10313;SDS011;5202;49.138;10.090;2023-02-14T12:48:53;14.30;;;10.00;;
10313;SDS011;5202;49.138;10.090;2023-02-14T12:51:54;14.77;;;11.03;;
10313;SDS011;5202;49.138;10.090;2023-02-14T12:54:40;16.07;;;11.37;;
10313;SDS011;5202;49.138;10.090;2023-02-14T12:57:26;16.83;;;11.03;;
10313;SDS011;5202;49.138;10.090;2023-02-14T13:00:09;15.17;;;10.33;;
10313;SDS011;5202;49.138;10.090;2023-02-14T13:06:06;16.60;;;10.17;;
10313;SDS011;5202;49.138;10.090;2023-02-14T13:08:53;13.13;;;10.40;;
10313;SDS011;5202;49.138;10.090;2023-02-14T13:11:39;12.63;;;10.03;;
10313;SDS011;5202;49.138;10.090;2023-02-14T13:14:24;13.80;;;10.20;;
10313;SDS011;5202;49.138;10.090;2023-02-14T13:17:12;14.53;;;9.70;;
10313;SDS011;5202;49.138;10.090;2023-02-14T13:19:51;13.63;;;10.27;;
10313;SDS011;5202;49.138;10.090;2023-02-14T13:22:29;14.27;;;9.60;;
10313;SDS011;5202;49.138;10.090;2023-02-14T13:25:00;12.90;;;9.47;;
10313;SDS011;5202;49.138;10.090;2023-02-14T13:27:41;13.10;;;9.90;;
10313;SDS011;5202;49.138;10.090;2023-02-14T13:30:12;12.93;;;9.60;;
10313;SDS011;5202;49.138;10.090;2023-02-14T13:32:49;14.93;;;10.03;;
10313;SDS011;5202;49.138;10.090;2023-02-14T13:35:20;14.50;;;9.97;;
10313;SDS011;5202;49.138;10.090;2023-02-14T13:37:50;15.20;;;10.00;;
10313;SDS011;5202;49.138;10.090;2023-02-14T13:40:22;14.17;;;10.77;;
10313;SDS011;5202;49.138;10.090;2023-02-14T13:42:55;14.60;;;10.33;;
10313;SDS011;5202;49.138;10.090;2023-02-14T13:48:22;14.57;;;10.77;;
10313;SDS011;5202;49.138;10.090;2023-02-14T13:50:53;15.83;;;10.80;;
10313;SDS011;5202;49.138;10.090;2023-02-14T13:53:28;16.47;;;11.03;;
10313;SDS011;5202;49.138;10.090;2023-02-14T13:56:00;14.67;;;10.50;;
10313;SDS011;5202;49.138;10.090;2023-02-14T13:58:33;15.27;;;10.87;;
10313;SDS011;5202;49.138;10.090;2023-02-14T14:03:58;13.70;;;10.13;;
10313;SDS011;5202;49.138;10.090;2023-02-14T14:06:28;14.93;;;10.23;;
10313;SDS011;5202;49.138;10.090;2023-02-14T14:08:57;13.53;;;9.17;;
10313;SDS011;5202;49.138;10.090;2023-02-14T14:14:33;13.60;;;10.00;;
10313;SDS011;5202;49.138;10.090;2023-02-14T14:17:19;13.53;;;10.10;;
10313;SDS011;5202;49.138;10.090;2023-02-14T14:19:51;14.57;;;10.00;;
10313;SDS011;5202;49.138;10.090;2023-02-14T14:22:20;13.47;;;9.30;;
10313;SDS011;5202;49.138;10.090;2023-02-14T14:24:52;14.50;;;10.57;;
10313;SDS011;5202;49.138;10.090;2023-02-14T14:27:24;13.90;;;10.13;;
10313;SDS011;5202;49.138;10.090;2023-02-14T14:30:01;12.43;;;9.00;;
10313;SDS011;5202;49.138;10.090;2023-02-14T14:32:32;13.43;;;10.10;;
10313;SDS011;5202;49.138;10.090;2023-02-14T14:35:19;13.65;;;9.68;;
10313;SDS011;5202;49.138;10.090;2023-02-14T14:37:50;13.98;;;10.02;;
10313;SDS011;5202;49.138;10.090;2023-02-14T14:40:23;16.13;;;11.10;;
10313;SDS011;5202;49.138;10.090;2023-02-14T14:42:56;16.97;;;12.17;;
10313;SDS011;5202;49.138;10.090;2023-02-14T14:45:34;15.30;;;10.87;;
10313;SDS011;5202;49.138;10.090;2023-02-14T14:48:07;17.67;;;11.77;;
10313;SDS011;5202;49.138;10.090;2023-02-14T14:50:38;15.88;;;11.05;;
10313;SDS011;5202;49.138;10.090;2023-02-14T14:53:17;16.88;;;10.48;;
10313;SDS011;5202;49.138;10.090;2023-02-14T14:55:49;14.30;;;10.90;;
10313;SDS011;5202;49.138;10.090;2023-02-14T14:58:32;14.77;;;10.65;;
10313;SDS011;5202;49.138;10.090;2023-02-14T15:01:08;15.23;;;10.90;;
10313;SDS011;5202;49.138;10.090;2023-02-14T15:03:52;15.67;;;11.17;;
10313;SDS011;5202;49.138;10.090;2023-02-14T15:06:21;14.33;;;9.97;;
10313;SDS011;5202;49.138;10.090;2023-02-14T15:08:49;14.17;;;9.93;;
10313;SDS011;5202;49.138;10.090;2023-02-14T15:11:18;14.47;;;10.93;;
10313;SDS011;5202;49.138;10.090;2023-02-14T15:14:07;14.60;;;11.17;;
10313;SDS011;5202;49.138;10.090;2023-02-14T15:16:44;15.97;;;10.73;;
10313;SDS011;5202;49.138;10.090;2023-02-14T15:19:16;12.60;;;9.27;;
10313;SDS011;5202;49.138;10.090;2023-02-14T15:21:51;16.50;;;10.20;;
10313;SDS011;5202;49.138;10.090;2023-02-14T15:24:19;13.10;;;10.13;;
10313;SDS011;5202;49.138;10.090;2023-02-14T15:26:47;15.73;;;10.47;;